sensor_id;sensor_type;location;lat;lon;timestamp;P1;durP1;ratioP1;P2;durP2;ratioP2
7334;SDS011;3708;42.632;23.378;2022-12-05T00:00:21;7.23;;;5.27;;
7334;SDS011;3708;42.632;23.378;2022-12-05T00:02:48;7.97;;;6.30;;
7334;SDS011;3708;42.632;23.378;2022-12-05T00:05:15;8.47;;;5.87;;
7334;SDS011;3708;42.632;23.378;2022-12-05T00:07:50;9.90;;;6.43;;
7334;SDS011;3708;42.632;23.378;2022-12-05T00:10:22;9.43;;;5.93;;
7334;SDS011;3708;42.632;23.378;2022-12-05T00:12:51;7.67;;;5.70;;
7334;SDS011;3708;42.632;23.378;2022-12-05T00:15:18;8.70;;;5.70;;
7334;SDS011;3708;42.632;23.378;2022-12-05T00:17:45;8.10;;;6.20;;
7334;SDS011;3708;42.632;23.378;2022-12-05T00:20:14;9.60;;;6.50;;
7334;SDS011;3708;42.632;23.378;2022-12-05T00:22:41;9.60;;;5.43;;
7334;SDS011;3708;42.632;23.378;2022-12-05T00:25:11;6.37;;;4.93;;
7334;SDS011;3708;42.632;23.378;2022-12-05T00:27:38;8.63;;;5.83;;
7334;SDS011;3708;42.632;23.378;2022-12-05T00:30:07;7.17;;;5.80;;
7334;SDS011;3708;42.632;23.378;2022-12-05T00:32:34;9.33;;;5.83;;
7334;SDS011;3708;42.632;23.378;2022-12-05T00:35:04;7.93;;;5.30;;
7334;SDS011;3708;42.632;23.378;2022-12-05T00:37:31;10.10;;;6.40;;
7334;SDS011;3708;42.632;23.378;2022-12-05T00:40:00;8.27;;;5.40;;
7334;SDS011;3708;42.632;23.378;2022-12-05T00:42:28;10.03;;;5.97;;
7334;SDS011;3708;42.632;23.378;2022-12-05T00:44:55;8.20;;;5.97;;
7334;SDS011;3708;42.632;23.378;2022-12-05T00:47:24;9.10;;;6.10;;
7334;SDS011;3708;42.632;23.378;2022-12-05T00:49:51;8.13;;;6.00;;
7334;SDS011;3708;42.632;23.378;2022-12-05T00:52:19;9.13;;;6.20;;
7334;SDS011;3708;42.632;23.378;2022-12-05T00:54:46;11.03;;;5.57;;
7334;SDS011;3708;42.632;23.378;2022-12-05T00:57:30;10.00;;;6.00;;
7334;SDS011;3708;42.632;23.378;2022-12-05T01:00:08;7.53;;;5.57;;
7334;SDS011;3708;42.632;23.378;2022-12-05T01:02:40;7.60;;;5.40;;
7334;SDS011;3708;42.632;23.378;2022-12-05T01:05:07;8.47;;;6.17;;
7334;SDS011;3708;42.632;23.378;2022-12-05T01:07:43;9.03;;;6.33;;
7334;SDS011;3708;42.632;23.378;2022-12-05T01:10:14;7.93;;;5.70;;
7334;SDS011;3708;42.632;23.378;2022-12-05T01:12:42;8.10;;;5.53;;
7334;SDS011;3708;42.632;23.378;2022-12-05T01:15:10;8.53;;;5.03;;
7334;SDS011;3708;42.632;23.378;2022-12-05T01:17:45;7.97;;;5.67;;
7334;SDS011;3708;42.632;23.378;2022-12-05T01:20:15;9.03;;;5.73;;
7334;SDS011;3708;42.632;23.378;2022-12-05T01:22:50;8.13;;;5.67;;
7334;SDS011;3708;42.632;23.378;2022-12-05T01:25:22;7.33;;;5.97;;
7334;SDS011;3708;42.632;23.378;2022-12-05T01:27:51;7.50;;;5.43;;
7334;SDS011;3708;42.632;23.378;2022-12-05T01:30:19;7.93;;;5.93;;
7334;SDS011;3708;42.632;23.378;2022-12-05T01:33:01;8.43;;;5.60;;
7334;SDS011;3708;42.632;23.378;2022-12-05T01:35:36;8.47;;;5.10;;
7334;SDS011;3708;42.632;23.378;2022-12-05T01:38:12;8.33;;;5.23;;
7334;SDS011;3708;42.632;23.378;2022-12-05T01:40:46;8.97;;;5.50;;
7334;SDS011;3708;42.632;23.378;2022-12-05T01:43:16;10.63;;;6.57;;
7334;SDS011;3708;42.632;23.378;2022-12-05T01:45:50;9.73;;;6.23;;
7334;SDS011;3708;42.632;23.378;2022-12-05T01:48:35;9.70;;;6.67;;
7334;SDS011;3708;42.632;23.378;2022-12-05T01:51:08;8.73;;;5.90;;
7334;SDS011;3708;42.632;23.378;2022-12-05T01:53:43;8.40;;;6.07;;
7334;SDS011;3708;42.632;23.378;2022-12-05T01:56:20;12.57;;;7.00;;
7334;SDS011;3708;42.632;23.378;2022-12-05T01:59:12;10.57;;;6.57;;
7334;SDS011;3708;42.632;23.378;2022-12-05T02:01:43;9.63;;;6.10;;
7334;SDS011;3708;42.632;23.378;2022-12-05T02:04:11;11.10;;;6.87;;
7334;SDS011;3708;42.632;23.378;2022-12-05T02:06:39;9.73;;;6.37;;
7334;SDS011;3708;42.632;23.378;2022-12-05T02:09:06;9.60;;;6.20;;
7334;SDS011;3708;42.632;23.378;2022-12-05T02:11:34;10.40;;;6.63;;
7334;SDS011;3708;42.632;23.378;2022-12-05T02:14:15;11.10;;;6.10;;
7334;SDS011;3708;42.632;23.378;2022-12-05T02:16:55;11.57;;;5.83;;
7334;SDS011;3708;42.632;23.378;2022-12-05T02:19:43;7.67;;;5.67;;
7334;SDS011;3708;42.632;23.378;2022-12-05T02:22:32;8.03;;;6.10;;
7334;SDS011;3708;42.632;23.378;2022-12-05T02:25:17;8.53;;;5.57;;
7334;SDS011;3708;42.632;23.378;2022-12-05T02:28:17;9.97;;;5.97;;
7334;SDS011;3708;42.632;23.378;2022-12-05T02:31:04;10.67;;;6.70;;
7334;SDS011;3708;42.632;23.378;2022-12-05T02:33:38;9.73;;;5.67;;
7334;SDS011;3708;42.632;23.378;2022-12-05T02:36:10;10.60;;;7.03;;
7334;SDS011;3708;42.632;23.378;2022-12-05T02:38:44;9.17;;;6.93;;
7334;SDS011;3708;42.632;23.378;2022-12-05T02:41:20;9.87;;;6.40;;
7334;SDS011;3708;42.632;23.378;2022-12-05T02:44:10;8.40;;;6.30;;
7334;SDS011;3708;42.632;23.378;2022-12-05T02:46:47;9.50;;;6.27;;
7334;SDS011;3708;42.632;23.378;2022-12-05T02:49:23;8.97;;;6.30;;
7334;SDS011;3708;42.632;23.378;2022-12-05T02:51:57;9.27;;;6.43;;
7334;SDS011;3708;42.632;23.378;2022-12-05T02:54:30;9.93;;;7.13;;
7334;SDS011;3708;42.632;23.378;2022-12-05T02:57:00;9.53;;;6.30;;
7334;SDS011;3708;42.632;23.378;2022-12-05T02:59:32;8.77;;;6.33;;
7334;SDS011;3708;42.632;23.378;2022-12-05T03:02:03;7.87;;;6.20;;
7334;SDS011;3708;42.632;23.378;2022-12-05T03:04:30;8.27;;;6.13;;
7334;SDS011;3708;42.632;23.378;2022-12-05T03:06:57;9.30;;;6.20;;
7334;SDS011;3708;42.632;23.378;2022-12-05T03:09:27;7.87;;;5.47;;
7334;SDS011;3708;42.632;23.378;2022-12-05T03:11:58;8.43;;;5.97;;
7334;SDS011;3708;42.632;23.378;2022-12-05T03:14:40;8.10;;;5.40;;
7334;SDS011;3708;42.632;23.378;2022-12-05T03:17:12;10.37;;;5.93;;
7334;SDS011;3708;42.632;23.378;2022-12-05T03:19:44;8.47;;;6.13;;
7334;SDS011;3708;42.632;23.378;2022-12-05T03:22:17;9.30;;;5.93;;
7334;SDS011;3708;42.632;23.378;2022-12-05T03:24:47;10.97;;;7.27;;
7334;SDS011;3708;42.632;23.378;2022-12-05T03:27:15;9.70;;;7.10;;
7334;SDS011;3708;42.632;23.378;2022-12-05T03:29:49;9.43;;;6.27;;
7334;SDS011;3708;42.632;23.378;2022-12-05T03:32:25;11.13;;;7.10;;
7334;SDS011;3708;42.632;23.378;2022-12-05T03:35:02;9.23;;;6.23;;
7334;SDS011;3708;42.632;23.378;2022-12-05T03:37:35;12.57;;;6.90;;
7334;SDS011;3708;42.632;23.378;2022-12-05T03:40:12;9.90;;;6.57;;
7334;SDS011;3708;42.632;23.378;2022-12-05T03:42:48;10.17;;;6.13;;
7334;SDS011;3708;42.632;23.378;2022-12-05T03:45:25;8.73;;;6.13;;
7334;SDS011;3708;42.632;23.378;2022-12-05T03:48:03;9.23;;;6.37;;
7334;SDS011;3708;42.632;23.378;2022-12-05T03:50:40;8.40;;;5.93;;
7334;SDS011;3708;42.632;23.378;2022-12-05T03:53:25;9.57;;;6.20;;
7334;SDS011;3708;42.632;23.378;2022-12-05T03:55:59;10.03;;;6.37;;
7334;SDS011;3708;42.632;23.378;2022-12-05T03:58:32;9.17;;;6.17;;
7334;SDS011;3708;42.632;23.378;2022-12-05T04:01:13;9.63;;;6.40;;
7334;SDS011;3708;42.632;23.378;2022-12-05T04:03:49;9.53;;;5.57;;
7334;SDS011;3708;42.632;23.378;2022-12-05T04:06:28;8.03;;;6.00;;
7334;SDS011;3708;42.632;23.378;2022-12-05T04:09:03;9.27;;;6.30;;
7334;SDS011;3708;42.632;23.378;2022-12-05T04:11:33;12.40;;;7.33;;
7334;SDS011;3708;42.632;23.378;2022-12-05T04:14:04;8.63;;;6.10;;
7334;SDS011;3708;42.632;23.378;2022-12-05T04:16:36;8.47;;;5.83;;
7334;SDS011;3708;42.632;23.378;2022-12-05T04:19:25;9.37;;;6.10;;
7334;SDS011;3708;42.632;23.378;2022-12-05T04:22:17;10.77;;;6.87;;
7334;SDS011;3708;42.632;23.378;2022-12-05T04:24:44;9.57;;;6.37;;
7334;SDS011;3708;42.632;23.378;2022-12-05T04:27:31;11.67;;;6.50;;
7334;SDS011;3708;42.632;23.378;2022-12-05T04:30:05;10.70;;;7.43;;
7334;SDS011;3708;42.632;23.378;2022-12-05T04:32:36;12.90;;;7.03;;
7334;SDS011;3708;42.632;23.378;2022-12-05T04:35:10;10.53;;;7.40;;
7334;SDS011;3708;42.632;23.378;2022-12-05T04:37:43;15.83;;;9.33;;
7334;SDS011;3708;42.632;23.378;2022-12-05T04:40:14;14.53;;;9.17;;
7334;SDS011;3708;42.632;23.378;2022-12-05T04:42:45;13.17;;;8.03;;
7334;SDS011;3708;42.632;23.378;2022-12-05T04:45:14;11.40;;;7.43;;
7334;SDS011;3708;42.632;23.378;2022-12-05T04:47:46;10.47;;;6.70;;
7334;SDS011;3708;42.632;23.378;2022-12-05T04:50:17;12.47;;;7.17;;
7334;SDS011;3708;42.632;23.378;2022-12-05T04:52:47;10.07;;;7.20;;
7334;SDS011;3708;42.632;23.378;2022-12-05T04:55:20;12.07;;;7.17;;
7334;SDS011;3708;42.632;23.378;2022-12-05T04:57:54;10.93;;;7.47;;
7334;SDS011;3708;42.632;23.378;2022-12-05T05:00:27;10.33;;;6.63;;
7334;SDS011;3708;42.632;23.378;2022-12-05T05:02:57;10.63;;;6.97;;
7334;SDS011;3708;42.632;23.378;2022-12-05T05:05:32;12.30;;;7.70;;
7334;SDS011;3708;42.632;23.378;2022-12-05T05:08:14;14.30;;;8.23;;
7334;SDS011;3708;42.632;23.378;2022-12-05T05:10:46;12.50;;;7.90;;
7334;SDS011;3708;42.632;23.378;2022-12-05T05:13:19;16.33;;;8.10;;
7334;SDS011;3708;42.632;23.378;2022-12-05T05:15:47;11.17;;;7.43;;
7334;SDS011;3708;42.632;23.378;2022-12-05T05:18:32;14.13;;;9.77;;
7334;SDS011;3708;42.632;23.378;2022-12-05T05:21:19;17.33;;;9.53;;
7334;SDS011;3708;42.632;23.378;2022-12-05T05:24:08;15.90;;;8.63;;
7334;SDS011;3708;42.632;23.378;2022-12-05T05:26:44;16.97;;;9.70;;
7334;SDS011;3708;42.632;23.378;2022-12-05T05:29:24;13.17;;;8.40;;
7334;SDS011;3708;42.632;23.378;2022-12-05T05:31:53;11.97;;;7.93;;
7334;SDS011;3708;42.632;23.378;2022-12-05T05:34:22;11.43;;;7.60;;
7334;SDS011;3708;42.632;23.378;2022-12-05T05:36:55;12.80;;;8.10;;
7334;SDS011;3708;42.632;23.378;2022-12-05T05:39:23;12.13;;;7.57;;
7334;SDS011;3708;42.632;23.378;2022-12-05T05:41:53;12.90;;;7.70;;
7334;SDS011;3708;42.632;23.378;2022-12-05T05:44:21;10.90;;;7.67;;
7334;SDS011;3708;42.632;23.378;2022-12-05T05:46:48;10.87;;;7.93;;
7334;SDS011;3708;42.632;23.378;2022-12-05T05:49:15;14.60;;;8.43;;
7334;SDS011;3708;42.632;23.378;2022-12-05T05:51:43;12.30;;;8.20;;
7334;SDS011;3708;42.632;23.378;2022-12-05T05:54:12;10.67;;;7.70;;
7334;SDS011;3708;42.632;23.378;2022-12-05T05:56:40;17.83;;;9.03;;
7334;SDS011;3708;42.632;23.378;2022-12-05T05:59:07;12.73;;;8.50;;
7334;SDS011;3708;42.632;23.378;2022-12-05T06:01:35;14.03;;;8.30;;
7334;SDS011;3708;42.632;23.378;2022-12-05T06:04:05;12.37;;;7.90;;
7334;SDS011;3708;42.632;23.378;2022-12-05T06:06:33;13.00;;;7.23;;
7334;SDS011;3708;42.632;23.378;2022-12-05T06:09:01;13.43;;;8.20;;
7334;SDS011;3708;42.632;23.378;2022-12-05T06:11:30;13.00;;;8.20;;
7334;SDS011;3708;42.632;23.378;2022-12-05T06:13:58;10.77;;;7.13;;
7334;SDS011;3708;42.632;23.378;2022-12-05T06:16:26;10.50;;;7.67;;
7334;SDS011;3708;42.632;23.378;2022-12-05T06:18:54;15.87;;;8.87;;
7334;SDS011;3708;42.632;23.378;2022-12-05T06:21:23;12.37;;;8.33;;
7334;SDS011;3708;42.632;23.378;2022-12-05T06:23:50;11.30;;;7.50;;
7334;SDS011;3708;42.632;23.378;2022-12-05T06:26:20;14.03;;;8.53;;
7334;SDS011;3708;42.632;23.378;2022-12-05T06:28:51;12.53;;;8.23;;
7334;SDS011;3708;42.632;23.378;2022-12-05T06:31:20;11.97;;;7.30;;
7334;SDS011;3708;42.632;23.378;2022-12-05T06:33:51;10.33;;;7.20;;
7334;SDS011;3708;42.632;23.378;2022-12-05T06:36:20;13.00;;;8.03;;
7334;SDS011;3708;42.632;23.378;2022-12-05T06:38:51;11.33;;;6.93;;
7334;SDS011;3708;42.632;23.378;2022-12-05T06:41:18;10.53;;;7.20;;
7334;SDS011;3708;42.632;23.378;2022-12-05T06:43:50;10.80;;;7.03;;
7334;SDS011;3708;42.632;23.378;2022-12-05T06:46:20;13.87;;;7.67;;
7334;SDS011;3708;42.632;23.378;2022-12-05T06:48:47;9.50;;;6.43;;
7334;SDS011;3708;42.632;23.378;2022-12-05T06:51:17;9.10;;;6.90;;
7334;SDS011;3708;42.632;23.378;2022-12-05T06:53:45;10.17;;;6.97;;
7334;SDS011;3708;42.632;23.378;2022-12-05T06:56:15;13.03;;;7.93;;
7334;SDS011;3708;42.632;23.378;2022-12-05T06:58:47;11.33;;;7.37;;
7334;SDS011;3708;42.632;23.378;2022-12-05T07:01:20;12.13;;;7.47;;
7334;SDS011;3708;42.632;23.378;2022-12-05T07:04:11;9.80;;;7.27;;
7334;SDS011;3708;42.632;23.378;2022-12-05T07:06:41;12.47;;;8.30;;
7334;SDS011;3708;42.632;23.378;2022-12-05T07:09:11;9.27;;;7.00;;
7334;SDS011;3708;42.632;23.378;2022-12-05T07:11:38;11.47;;;7.03;;
7334;SDS011;3708;42.632;23.378;2022-12-05T07:14:05;10.90;;;6.37;;
7334;SDS011;3708;42.632;23.378;2022-12-05T07:16:36;10.23;;;7.00;;
7334;SDS011;3708;42.632;23.378;2022-12-05T07:19:03;8.30;;;6.63;;
7334;SDS011;3708;42.632;23.378;2022-12-05T07:21:32;9.93;;;7.57;;
7334;SDS011;3708;42.632;23.378;2022-12-05T07:23:59;8.57;;;6.27;;
7334;SDS011;3708;42.632;23.378;2022-12-05T07:26:26;9.67;;;6.37;;
7334;SDS011;3708;42.632;23.378;2022-12-05T08:09:13;14.70;;;9.30;;
7334;SDS011;3708;42.632;23.378;2022-12-05T08:11:46;14.70;;;9.67;;
7334;SDS011;3708;42.632;23.378;2022-12-05T08:14:19;13.77;;;9.23;;
7334;SDS011;3708;42.632;23.378;2022-12-05T08:16:48;9.90;;;7.30;;
7334;SDS011;3708;42.632;23.378;2022-12-05T08:19:16;8.83;;;6.23;;
7334;SDS011;3708;42.632;23.378;2022-12-05T08:21:46;10.83;;;6.63;;
7334;SDS011;3708;42.632;23.378;2022-12-05T08:24:20;12.60;;;7.60;;
7334;SDS011;3708;42.632;23.378;2022-12-05T08:26:56;10.57;;;6.57;;
7334;SDS011;3708;42.632;23.378;2022-12-05T08:29:27;10.83;;;5.97;;
7334;SDS011;3708;42.632;23.378;2022-12-05T08:31:54;12.43;;;5.77;;
7334;SDS011;3708;42.632;23.378;2022-12-05T08:34:21;8.93;;;5.73;;
7334;SDS011;3708;42.632;23.378;2022-12-05T08:36:53;10.37;;;5.30;;
7334;SDS011;3708;42.632;23.378;2022-12-05T08:39:22;8.77;;;4.83;;
7334;SDS011;3708;42.632;23.378;2022-12-05T08:41:51;6.87;;;5.00;;
7334;SDS011;3708;42.632;23.378;2022-12-05T08:44:24;6.47;;;5.17;;
7334;SDS011;3708;42.632;23.378;2022-12-05T08:46:59;8.37;;;4.40;;
7334;SDS011;3708;42.632;23.378;2022-12-05T08:49:27;6.07;;;4.87;;
7334;SDS011;3708;42.632;23.378;2022-12-05T08:51:55;7.33;;;4.60;;
7334;SDS011;3708;42.632;23.378;2022-12-05T08:54:37;9.67;;;5.03;;
7334;SDS011;3708;42.632;23.378;2022-12-05T08:57:06;6.87;;;4.83;;
7334;SDS011;3708;42.632;23.378;2022-12-05T08:59:35;5.37;;;4.17;;
7334;SDS011;3708;42.632;23.378;2022-12-05T09:02:03;5.50;;;3.83;;
7334;SDS011;3708;42.632;23.378;2022-12-05T09:04:32;5.13;;;3.97;;
7334;SDS011;3708;42.632;23.378;2022-12-05T09:07:00;6.40;;;4.87;;
7334;SDS011;3708;42.632;23.378;2022-12-05T09:09:30;8.03;;;4.73;;
7334;SDS011;3708;42.632;23.378;2022-12-05T09:11:59;6.40;;;4.23;;
7334;SDS011;3708;42.632;23.378;2022-12-05T09:14:28;6.80;;;4.83;;
7334;SDS011;3708;42.632;23.378;2022-12-05T09:16:57;6.27;;;4.93;;
7334;SDS011;3708;42.632;23.378;2022-12-05T09:19:27;6.63;;;4.73;;
7334;SDS011;3708;42.632;23.378;2022-12-05T09:22:04;8.93;;;5.80;;
7334;SDS011;3708;42.632;23.378;2022-12-05T09:24:38;7.83;;;4.70;;
7334;SDS011;3708;42.632;23.378;2022-12-05T09:27:07;6.87;;;4.40;;
7334;SDS011;3708;42.632;23.378;2022-12-05T09:29:34;5.77;;;4.30;;
7334;SDS011;3708;42.632;23.378;2022-12-05T09:32:02;6.50;;;4.43;;
7334;SDS011;3708;42.632;23.378;2022-12-05T09:34:32;7.10;;;4.40;;
7334;SDS011;3708;42.632;23.378;2022-12-05T09:37:02;7.17;;;5.30;;
7334;SDS011;3708;42.632;23.378;2022-12-05T09:39:31;5.90;;;4.77;;
7334;SDS011;3708;42.632;23.378;2022-12-05T09:45:02;8.40;;;4.87;;
7334;SDS011;3708;42.632;23.378;2022-12-05T09:47:45;4.73;;;4.03;;
7334;SDS011;3708;42.632;23.378;2022-12-05T09:50:19;8.47;;;5.43;;
7334;SDS011;3708;42.632;23.378;2022-12-05T09:52:52;6.73;;;4.80;;
7334;SDS011;3708;42.632;23.378;2022-12-05T09:55:29;4.47;;;3.50;;
7334;SDS011;3708;42.632;23.378;2022-12-05T09:58:15;5.17;;;4.23;;
7334;SDS011;3708;42.632;23.378;2022-12-05T10:00:58;8.87;;;4.67;;
7334;SDS011;3708;42.632;23.378;2022-12-05T10:03:38;5.47;;;4.43;;
7334;SDS011;3708;42.632;23.378;2022-12-05T10:06:11;5.70;;;4.53;;
7334;SDS011;3708;42.632;23.378;2022-12-05T10:08:48;9.10;;;4.50;;
7334;SDS011;3708;42.632;23.378;2022-12-05T10:11:31;9.03;;;4.60;;
7334;SDS011;3708;42.632;23.378;2022-12-05T10:14:10;6.40;;;5.10;;
7334;SDS011;3708;42.632;23.378;2022-12-05T10:16:47;13.00;;;6.57;;
7334;SDS011;3708;42.632;23.378;2022-12-05T10:19:21;15.40;;;7.20;;
7334;SDS011;3708;42.632;23.378;2022-12-05T10:21:56;8.93;;;5.20;;
7334;SDS011;3708;42.632;23.378;2022-12-05T10:24:32;6.50;;;5.07;;
7334;SDS011;3708;42.632;23.378;2022-12-05T10:27:09;7.03;;;4.90;;
7334;SDS011;3708;42.632;23.378;2022-12-05T10:29:52;6.57;;;5.03;;
7334;SDS011;3708;42.632;23.378;2022-12-05T10:32:29;7.67;;;4.80;;
7334;SDS011;3708;42.632;23.378;2022-12-05T10:35:13;8.97;;;5.80;;
7334;SDS011;3708;42.632;23.378;2022-12-05T10:37:50;7.13;;;5.30;;
7334;SDS011;3708;42.632;23.378;2022-12-05T10:40:20;12.80;;;5.27;;
7334;SDS011;3708;42.632;23.378;2022-12-05T10:42:54;9.67;;;6.03;;
7334;SDS011;3708;42.632;23.378;2022-12-05T10:45:30;7.83;;;5.37;;
7334;SDS011;3708;42.632;23.378;2022-12-05T10:47:58;7.97;;;5.73;;
7334;SDS011;3708;42.632;23.378;2022-12-05T10:50:30;10.43;;;4.93;;
7334;SDS011;3708;42.632;23.378;2022-12-05T10:53:03;7.57;;;5.80;;
7334;SDS011;3708;42.632;23.378;2022-12-05T10:55:34;10.57;;;4.80;;
7334;SDS011;3708;42.632;23.378;2022-12-05T10:58:08;8.23;;;5.30;;
7334;SDS011;3708;42.632;23.378;2022-12-05T11:00:45;6.73;;;5.10;;
7334;SDS011;3708;42.632;23.378;2022-12-05T11:03:23;8.47;;;5.30;;
7334;SDS011;3708;42.632;23.378;2022-12-05T11:05:59;7.73;;;5.00;;
7334;SDS011;3708;42.632;23.378;2022-12-05T11:08:32;8.70;;;5.40;;
7334;SDS011;3708;42.632;23.378;2022-12-05T11:11:07;7.17;;;5.47;;
7334;SDS011;3708;42.632;23.378;2022-12-05T11:13:50;10.70;;;5.00;;
7334;SDS011;3708;42.632;23.378;2022-12-05T11:16:34;7.17;;;4.90;;
7334;SDS011;3708;42.632;23.378;2022-12-05T11:19:16;7.03;;;5.00;;
7334;SDS011;3708;42.632;23.378;2022-12-05T11:22:40;6.13;;;4.90;;
7334;SDS011;3708;42.632;23.378;2022-12-05T11:28:29;8.80;;;5.43;;
7334;SDS011;3708;42.632;23.378;2022-12-05T11:31:24;7.67;;;5.13;;
7334;SDS011;3708;42.632;23.378;2022-12-05T11:34:08;7.10;;;5.20;;
7334;SDS011;3708;42.632;23.378;2022-12-05T11:36:47;7.40;;;5.13;;
7334;SDS011;3708;42.632;23.378;2022-12-05T11:39:31;6.60;;;5.37;;
7334;SDS011;3708;42.632;23.378;2022-12-05T11:42:22;6.67;;;5.00;;
7334;SDS011;3708;42.632;23.378;2022-12-05T11:56:01;8.37;;;5.60;;
7334;SDS011;3708;42.632;23.378;2022-12-05T11:58:52;10.77;;;6.03;;
7334;SDS011;3708;42.632;23.378;2022-12-05T12:01:45;12.00;;;6.70;;
7334;SDS011;3708;42.632;23.378;2022-12-05T12:04:49;9.20;;;7.10;;
7334;SDS011;3708;42.632;23.378;2022-12-05T12:10:39;11.03;;;7.03;;
7334;SDS011;3708;42.632;23.378;2022-12-05T12:13:38;12.27;;;7.47;;
7334;SDS011;3708;42.632;23.378;2022-12-05T12:16:34;9.60;;;6.87;;
7334;SDS011;3708;42.632;23.378;2022-12-05T12:19:23;15.03;;;7.60;;
7334;SDS011;3708;42.632;23.378;2022-12-05T12:22:13;9.97;;;7.10;;
7334;SDS011;3708;42.632;23.378;2022-12-05T12:25:01;11.50;;;7.53;;
7334;SDS011;3708;42.632;23.378;2022-12-05T12:27:49;12.60;;;8.10;;
7334;SDS011;3708;42.632;23.378;2022-12-05T12:30:32;11.87;;;8.10;;
7334;SDS011;3708;42.632;23.378;2022-12-05T12:33:24;10.77;;;8.10;;
7334;SDS011;3708;42.632;23.378;2022-12-05T12:36:01;15.90;;;7.73;;
7334;SDS011;3708;42.632;23.378;2022-12-05T12:38:52;10.70;;;7.70;;
7334;SDS011;3708;42.632;23.378;2022-12-05T12:42:07;12.83;;;9.10;;
7334;SDS011;3708;42.632;23.378;2022-12-05T12:44:56;13.60;;;9.33;;
7334;SDS011;3708;42.632;23.378;2022-12-05T12:47:58;16.13;;;8.57;;
7334;SDS011;3708;42.632;23.378;2022-12-05T12:59:36;14.67;;;8.47;;
7334;SDS011;3708;42.632;23.378;2022-12-05T13:02:21;17.57;;;9.83;;
7334;SDS011;3708;42.632;23.378;2022-12-05T13:05:02;15.53;;;9.97;;
7334;SDS011;3708;42.632;23.378;2022-12-05T13:07:45;18.03;;;9.60;;
7334;SDS011;3708;42.632;23.378;2022-12-05T13:10:37;12.97;;;9.50;;
7334;SDS011;3708;42.632;23.378;2022-12-05T13:13:34;15.33;;;10.27;;
7334;SDS011;3708;42.632;23.378;2022-12-05T13:16:12;15.10;;;10.60;;
7334;SDS011;3708;42.632;23.378;2022-12-05T13:18:56;14.40;;;11.23;;
7334;SDS011;3708;42.632;23.378;2022-12-05T13:21:27;18.10;;;11.10;;
7334;SDS011;3708;42.632;23.378;2022-12-05T13:23:56;18.97;;;10.80;;
7334;SDS011;3708;42.632;23.378;2022-12-05T13:26:30;16.17;;;10.13;;
7334;SDS011;3708;42.632;23.378;2022-12-05T13:28:59;20.70;;;10.70;;
7334;SDS011;3708;42.632;23.378;2022-12-05T13:31:34;18.27;;;10.77;;
7334;SDS011;3708;42.632;23.378;2022-12-05T13:34:02;18.03;;;11.13;;
7334;SDS011;3708;42.632;23.378;2022-12-05T13:36:39;20.63;;;11.73;;
7334;SDS011;3708;42.632;23.378;2022-12-05T13:39:24;17.13;;;11.40;;
7334;SDS011;3708;42.632;23.378;2022-12-05T13:42:18;19.90;;;12.10;;
7334;SDS011;3708;42.632;23.378;2022-12-05T13:44:49;19.80;;;11.87;;
7334;SDS011;3708;42.632;23.378;2022-12-05T13:47:28;19.77;;;11.60;;
7334;SDS011;3708;42.632;23.378;2022-12-05T13:50:01;21.93;;;12.80;;
7334;SDS011;3708;42.632;23.378;2022-12-05T13:52:41;19.20;;;12.40;;
7334;SDS011;3708;42.632;23.378;2022-12-05T13:55:21;18.77;;;12.53;;
7334;SDS011;3708;42.632;23.378;2022-12-05T13:57:53;19.03;;;12.73;;
7334;SDS011;3708;42.632;23.378;2022-12-05T14:00:24;20.77;;;13.27;;
7334;SDS011;3708;42.632;23.378;2022-12-05T14:02:55;26.13;;;13.77;;
7334;SDS011;3708;42.632;23.378;2022-12-05T14:05:46;19.43;;;10.93;;
7334;SDS011;3708;42.632;23.378;2022-12-05T14:11:20;17.10;;;12.47;;
7334;SDS011;3708;42.632;23.378;2022-12-05T14:13:48;20.17;;;12.40;;
7334;SDS011;3708;42.632;23.378;2022-12-05T14:45:32;21.27;;;13.50;;
7334;SDS011;3708;42.632;23.378;2022-12-05T14:48:03;19.80;;;13.30;;
7334;SDS011;3708;42.632;23.378;2022-12-05T14:55:35;25.07;;;14.43;;
7334;SDS011;3708;42.632;23.378;2022-12-05T15:01:21;17.57;;;12.47;;
7334;SDS011;3708;42.632;23.378;2022-12-05T15:11:14;23.00;;;12.83;;
7334;SDS011;3708;42.632;23.378;2022-12-05T15:24:56;18.53;;;12.30;;
7334;SDS011;3708;42.632;23.378;2022-12-05T15:27:23;19.97;;;12.37;;
7334;SDS011;3708;42.632;23.378;2022-12-05T15:29:52;19.40;;;12.37;;
7334;SDS011;3708;42.632;23.378;2022-12-05T15:32:22;16.53;;;11.43;;
7334;SDS011;3708;42.632;23.378;2022-12-05T15:34:52;21.87;;;11.80;;
7334;SDS011;3708;42.632;23.378;2022-12-05T15:37:25;20.83;;;13.10;;
7334;SDS011;3708;42.632;23.378;2022-12-05T15:39:59;20.07;;;11.70;;
7334;SDS011;3708;42.632;23.378;2022-12-05T15:42:29;18.97;;;13.03;;
7334;SDS011;3708;42.632;23.378;2022-12-05T15:45:13;18.77;;;12.23;;
7334;SDS011;3708;42.632;23.378;2022-12-05T15:47:47;23.43;;;13.53;;
7334;SDS011;3708;42.632;23.378;2022-12-05T15:50:19;18.10;;;12.67;;
7334;SDS011;3708;42.632;23.378;2022-12-05T15:52:54;19.20;;;11.67;;
7334;SDS011;3708;42.632;23.378;2022-12-05T15:55:25;18.77;;;12.23;;
7334;SDS011;3708;42.632;23.378;2022-12-05T15:58:00;19.33;;;13.07;;
7334;SDS011;3708;42.632;23.378;2022-12-05T16:00:36;19.47;;;12.37;;
7334;SDS011;3708;42.632;23.378;2022-12-05T16:03:14;19.33;;;12.33;;
7334;SDS011;3708;42.632;23.378;2022-12-05T16:05:46;24.17;;;12.43;;
7334;SDS011;3708;42.632;23.378;2022-12-05T16:08:22;17.47;;;12.47;;
7334;SDS011;3708;42.632;23.378;2022-12-05T16:11:05;21.37;;;13.03;;
7334;SDS011;3708;42.632;23.378;2022-12-05T16:13:33;21.30;;;13.27;;
7334;SDS011;3708;42.632;23.378;2022-12-05T16:16:03;21.53;;;13.10;;
7334;SDS011;3708;42.632;23.378;2022-12-05T16:18:31;25.77;;;12.50;;
7334;SDS011;3708;42.632;23.378;2022-12-05T16:21:02;21.03;;;12.57;;
7334;SDS011;3708;42.632;23.378;2022-12-05T16:23:50;16.07;;;11.10;;
7334;SDS011;3708;42.632;23.378;2022-12-05T16:26:34;20.10;;;11.50;;
7334;SDS011;3708;42.632;23.378;2022-12-05T16:29:05;22.20;;;12.37;;
7334;SDS011;3708;42.632;23.378;2022-12-05T16:31:34;20.70;;;11.43;;
7334;SDS011;3708;42.632;23.378;2022-12-05T16:34:04;16.10;;;11.10;;
7334;SDS011;3708;42.632;23.378;2022-12-05T16:36:33;19.67;;;12.53;;
7334;SDS011;3708;42.632;23.378;2022-12-05T16:39:03;20.93;;;13.23;;
7334;SDS011;3708;42.632;23.378;2022-12-05T16:41:36;16.97;;;10.97;;
7334;SDS011;3708;42.632;23.378;2022-12-05T16:44:21;19.13;;;11.77;;
7334;SDS011;3708;42.632;23.378;2022-12-05T16:47:22;21.37;;;12.97;;
7334;SDS011;3708;42.632;23.378;2022-12-05T16:49:50;22.37;;;13.70;;
7334;SDS011;3708;42.632;23.378;2022-12-05T16:52:18;22.80;;;13.60;;
7334;SDS011;3708;42.632;23.378;2022-12-05T16:54:45;22.97;;;14.43;;
7334;SDS011;3708;42.632;23.378;2022-12-05T16:57:16;26.40;;;14.47;;
7334;SDS011;3708;42.632;23.378;2022-12-05T16:59:45;24.80;;;14.63;;
7334;SDS011;3708;42.632;23.378;2022-12-05T17:02:14;23.63;;;14.33;;
7334;SDS011;3708;42.632;23.378;2022-12-05T17:04:43;22.77;;;14.83;;
7334;SDS011;3708;42.632;23.378;2022-12-05T17:07:11;24.90;;;13.77;;
7334;SDS011;3708;42.632;23.378;2022-12-05T17:09:39;21.20;;;12.73;;
7334;SDS011;3708;42.632;23.378;2022-12-05T17:12:09;19.73;;;13.03;;
7334;SDS011;3708;42.632;23.378;2022-12-05T17:14:43;21.50;;;12.33;;
7334;SDS011;3708;42.632;23.378;2022-12-05T17:17:12;24.27;;;12.90;;
7334;SDS011;3708;42.632;23.378;2022-12-05T17:19:40;21.33;;;12.60;;
7334;SDS011;3708;42.632;23.378;2022-12-05T17:22:07;22.23;;;13.37;;
7334;SDS011;3708;42.632;23.378;2022-12-05T17:24:34;22.43;;;13.40;;
7334;SDS011;3708;42.632;23.378;2022-12-05T17:27:01;23.57;;;14.63;;
7334;SDS011;3708;42.632;23.378;2022-12-05T17:29:28;25.07;;;15.07;;
7334;SDS011;3708;42.632;23.378;2022-12-05T17:31:57;25.97;;;14.40;;
7334;SDS011;3708;42.632;23.378;2022-12-05T17:34:24;18.27;;;12.37;;
7334;SDS011;3708;42.632;23.378;2022-12-05T17:36:53;23.73;;;14.43;;
7334;SDS011;3708;42.632;23.378;2022-12-05T17:39:20;23.07;;;13.27;;
7334;SDS011;3708;42.632;23.378;2022-12-05T17:41:48;20.20;;;13.00;;